KBGR

Bangor International Airport

Bangor, Maine, USA
METAR KBGR 172053Z 15004KT 10SM BKN250 M03/M16 A3034 RMK AO2 SLP279 T10331161 53003
Observed Flight Rules
Feb-17 @ 20:53 UTC (41 minutes ago) Visual Flight Rules
Wind Visibility Clouds
150° at 4 knots 10 miles
  • Broken at 25,000' AGL
Temperatures Readings
Current -3°C / 27°F
Dewpoint -16°C / 3°F
Humidity 36%
Altimeter 30.34" Hg
Pressure 1027.9 hPa
Elevation 57
METAR KBGR 172053Z 15004KT 10SM BKN250 M03/M16 A3034 RMK AO2 SLP279 T10331161 53003
Observed Flight Rules
Feb-17 @ 20:53 UTC
(41 minutes ago)
VFR
Wind Visibility
150° at 4 knots 10 miles
Clouds
  • Broken at 25,000' AGL
Temperature Dewpoint
-3°C / 27°F -16°C / 3°F
Humidity Altimeter Pressure
36% 30.34" Hg 1027.9 hPa